»·PEaware :: N61PP KSNA-KNZY

N61PP :: KSNA-KNZY

FLIGHT INFORMATION

Flight Status: Arrived
Operator: Privately registered:
United States
More flights under this callsign
Pilot: Adam S. (8156)
Aircraft: PILATUS PC-12 EAGLE
(PC12)
More flights by this aircraft type
Origin: KSNA John Wayne-Orange Co
United States
Destination: KNZY North Island NAS
United States
More flights between these airports :: More routes between these airports
Route: +
File this flight plan on PilotEdge
Remarks:
Altitude:
(Current/Filed)
5,500ft
Speed:
(Current/Filed)
200kts
Departed: 12-Feb-16 10:47 AM
Arrived: 12-Feb-16 11:21 AM
Distance/Time
Traveled:
67nm/0:34
Distance/Time
To Go:
Arrived

Flight Plot

Page will automatically refresh every two minutes.

Flight plan parsing failed; only flown route is shown


Map Options




Map Legend


Flown Route
Filed Route
Departure Airport
Arrival Airport
Navaid (VOR, NDB)
Fix

Horizontal Profiles

Position Reports

Time Latitude Longitude Heading Altitude Ground
Speed
12-Feb-16 10:27 33.672353 -117.873053 30 60ft 0kts
12-Feb-16 10:28 33.672353 -117.873053 30 60ft 0kts
12-Feb-16 10:29 33.672353 -117.873053 30 60ft 0kts
12-Feb-16 10:30 33.672353 -117.873053 30 60ft 0kts
12-Feb-16 10:31 33.672353 -117.873053 30 60ft 0kts
12-Feb-16 10:32 33.672354 -117.873052 31 60ft 0kts
12-Feb-16 10:33 33.672354 -117.873052 31 60ft 0kts
12-Feb-16 10:34 33.672354 -117.873052 31 60ft 0kts
12-Feb-16 10:35 33.672354 -117.873052 31 60ft 0kts
12-Feb-16 10:36 33.672493 -117.872895 45 60ft 4kts
12-Feb-16 10:37 33.674806 -117.870895 28 60ft 13kts
12-Feb-16 10:38 33.679273 -117.868081 17 60ft 22kts
12-Feb-16 10:39 33.681228 -117.866510 106 60ft 0kts
12-Feb-16 10:40 33.681227 -117.866504 106 60ft 1kts
12-Feb-16 10:41 33.674592 -117.869528 207 60ft 94kts
12-Feb-16 10:42 33.647637 -117.884482 187 1372ft 113kts
12-Feb-16 10:43 33.616920 -117.889224 186 3083ft 112kts
12-Feb-16 10:44 33.592210 -117.880170 88 4621ft 105kts
12-Feb-16 10:45 33.615454 -117.857204 29 5535ft 153kts
12-Feb-16 10:46 33.660164 -117.826315 31 5512ft 208kts
12-Feb-16 10:47 33.692150 -117.770632 88 5516ft 220kts
12-Feb-16 10:48 33.656976 -117.715272 159 5517ft 225kts
12-Feb-16 10:49 33.595586 -117.700142 168 5509ft 227kts
12-Feb-16 10:50 33.534386 -117.686385 166 5511ft 222kts
12-Feb-16 10:51 33.474763 -117.669302 165 5513ft 220kts
12-Feb-16 10:52 33.415599 -117.650966 161 5516ft 220kts
12-Feb-16 10:53 33.357829 -117.628007 156 5517ft 218kts
12-Feb-16 10:54 33.301759 -117.600479 156 5518ft 218kts
12-Feb-16 10:55 33.243953 -117.578017 169 5516ft 219kts
12-Feb-16 10:56 33.183820 -117.568904 171 5512ft 217kts
12-Feb-16 10:57 33.124472 -117.560319 171 5508ft 212kts
12-Feb-16 10:58 33.066546 -117.552049 171 5209ft 213kts
12-Feb-16 10:59 33.007381 -117.545052 188 4546ft 218kts
12-Feb-16 11:00 32.948058 -117.561828 192 3840ft 218kts
12-Feb-16 11:01 32.891042 -117.577965 192 2960ft 209kts
12-Feb-16 11:02 32.834788 -117.591313 178 2062ft 204kts
12-Feb-16 11:03 32.792620 -117.558353 121 1500ft 184kts
12-Feb-16 11:04 32.766299 -117.511617 123 1505ft 164kts
12-Feb-16 11:05 32.741708 -117.468455 123 1505ft 153kts
12-Feb-16 11:06 32.718343 -117.427473 123 1506ft 148kts
12-Feb-16 11:07 32.702646 -117.384910 86 1508ft 144kts
12-Feb-16 11:08 32.702144 -117.341547 90 1524ft 114kts
12-Feb-16 11:09 32.701143 -117.311607 93 1516ft 102kts
12-Feb-16 11:10 32.679195 -117.295158 203 1595ft 117kts
12-Feb-16 11:11 32.662980 -117.281688 63 1665ft 104kts
12-Feb-16 11:12 32.677886 -117.265938 38 1455ft 104kts
12-Feb-16 11:13 32.699949 -117.257599 55 991ft 89kts
12-Feb-16 11:14 32.706084 -117.232814 93 559ft 95kts
12-Feb-16 11:15 32.698064 -117.213171 117 30ft 0kts
12-Feb-16 11:16 32.700598 -117.256266 63 944ft 90kts
12-Feb-16 11:17 32.705127 -117.227856 107 417ft 96kts
12-Feb-16 11:18 32.698054 -117.213146 114 30ft 0kts

Navigation Log

Ident Type
Flight plan parsing failed, navigation log unavailable